Home > Products > Valid Products > MTR

000
SAUS44 KEWX 301352
MTRATT
METAR KATT 301351Z AUTO VRB05KT 10SM OVC100 09/01 A3044 RMK AO2
RAE1254 SLP307 P0000 T00890006





000
SAUS44 KEWX 301252
MTRATT
METAR KATT 301251Z AUTO 03004KT 10SM -RA OVC100 09/01 A3044 RMK AO2
RAB41 SLP304 P0000 T00890006





000
SAUS44 KEWX 301152
MTRATT
METAR KATT 301151Z AUTO 03008KT 10SM OVC100 09/01 A3043 RMK AO2
SLP302 60000 T00940006 10144 20094 53007





000
SAUS44 KEWX 301052
MTRATT
METAR KATT 301051Z AUTO 02007G15KT 10SM OVC100 10/01 A3041 RMK AO2
SLP294 T01000006





000
SAUS44 KEWX 300952
MTRATT
METAR KATT 300951Z AUTO 01008G15KT 10SM OVC100 11/01 A3041 RMK AO2
RAB13E40 SLP293 P0000 T01060006





000
SAUS44 KEWX 300853
MTRATT
METAR KATT 300851Z AUTO 02009G19KT 10SM OVC100 12/01 A3041 RMK AO2
SLP291 60000 T01170006 51002





000
SAUS44 KEWX 300753
MTRATT
METAR KATT 300751Z AUTO 02008G17KT 10SM BKN100 OVC120 12/01 A3041
RMK AO2 RAE0652 SLP292 P0000 T01220011





000
SAUS44 KEWX 300652
MTRATT
METAR KATT 300651Z AUTO 01007G16KT 10SM -RA FEW075 OVC100 13/02
A3041 RMK AO2 RAB44 SLP290 P0000 T01330017





000
SAUS44 KEWX 300553
MTRATT
METAR KATT 300551Z AUTO 01009G17KT 10SM BKN110 14/01 A3040 RMK AO2
SLP290 60000 T01440011 10206 20144 402610111 51016





000
SAUS44 KEWX 300453
MTRATT
METAR KATT 300451Z AUTO 01007G15KT 10SM FEW120 16/03 A3039 RMK AO2
SLP288 T01560028





000
SAUS44 KEWX 300352
MTRATT
METAR KATT 300351Z AUTO 01008G16KT 10SM SCT110 16/03 A3038 RMK AO2
RAB03E30 SLP284 P0000 T01610033





000
SAUS44 KEWX 300252
MTRATT
METAR KATT 300251Z AUTO 03010G18KT 360V070 10SM BKN110 18/04 A3035
RMK AO2 SLP275 T01780039 51030





000
SAUS44 KEWX 300153
MTRATT
METAR KATT 300151Z AUTO 02008KT 10SM CLR 18/05 A3032 RMK AO2 SLP264
T01830050





000
SAUS44 KEWX 300052
MTRATT
METAR KATT 300051Z AUTO 03006KT 10SM CLR 19/05 A3030 RMK AO2 SLP257
T01940050





000
SAUS44 KEWX 292353
MTRATT
METAR KATT 292351Z AUTO 02007G14KT 10SM CLR 21/06 A3026 RMK AO2
SLP244 T02060061 10261 20206 53021





000
SAUS44 KEWX 292253
MTRATT
METAR KATT 292251Z AUTO 03009G15KT 10SM CLR 22/08 A3023 RMK AO2
SLP234 T02220083





000
SAUS44 KEWX 292152
MTRATT
METAR KATT 292151Z AUTO VRB04KT 10SM CLR 26/09 A3021 RMK AO2 SLP222
T02560094





000
SAUS44 KEWX 292152
MTRATT
METAR KATT 292151Z AUTO VRB04KT 10SM CLR 26/09 A3021 RMK AO2 SLP222
T02560094





000
SAUS44 KEWX 292052
MTRATT
METAR KATT 292051Z AUTO 00000KT 10SM CLR 26/10 A3020 RMK AO2 SLP219
T02560100 56017





000
SAUS44 KEWX 291952
MTRATT
METAR KATT 291951Z AUTO 00000KT 10SM CLR 24/09 A3020 RMK AO2 SLP222
T02440089





000
SAUS44 KEWX 291853
MTRATT
METAR KATT 291851Z AUTO VRB05KT 10SM CLR 24/11 A3023 RMK AO2 SLP229
T02390111





000
SAUS44 KEWX 291752
MTRATT
METAR KATT 291751Z AUTO VRB04KT 10SM CLR 21/11 A3025 RMK AO2 SLP237
T02110111 10217 20117 50003





000
SAUS44 KEWX 291652
MTRATT
METAR KATT 291651Z AUTO 00000KT 10SM CLR 19/12 A3028 RMK AO2 SLP249
T01890122





000
SAUS44 KEWX 291605
MTRATT
SPECI KATT 291603Z AUTO 29004KT 10SM SCT015 17/13 A3029 RMK AO2
T01720128





000
SAUS44 KEWX 291553
MTRATT
METAR KATT 291551Z AUTO VRB03KT 10SM OVC014 16/13 A3028 RMK AO2
SLP249 T01560128





000
SAUS44 KEWX 291452
MTRATT
METAR KATT 291451Z AUTO VRB03KT 10SM BKN012 14/13 A3024 RMK AO2
SLP235 T01440128 52031





000
SAUS44 KEWX 291352
MTRATT
METAR KATT 291351Z AUTO 00000KT 6SM BR BKN010 13/12 A3021 RMK AO2
SLP225 T01280122





000
SAUS44 KEWX 291331
MTRATT
SPECI KATT 291330Z AUTO 00000KT 8SM OVC010 12/12 A3019 RMK AO2
T01220117





000
SAUS44 KEWX 291252
MTRATT
METAR KATT 291251Z AUTO 00000KT 8SM OVC008 12/12 A3018 RMK AO2
SLP214 T01220117





000
SAUS44 KEWX 291217
MTRATT
SPECI KATT 291216Z AUTO 21003KT 8SM BKN006 12/12 A3016 RMK AO2
T01220117





000
SAUS44 KEWX 291208
MTRATT
SPECI KATT 291207Z AUTO 00000KT 8SM SCT006 12/11 A3016 RMK AO2
T01170111





000
SAUS44 KEWX 291152
MTRATT
METAR KATT 291151Z AUTO 20003KT 7SM CLR 12/11 A3015 RMK AO2 SLP203
T01170111 10150 20111 50002





000
SAUS44 KEWX 291052
MTRATT
METAR KATT 291051Z AUTO 00000KT 10SM CLR 12/11 A3015 RMK AO2 SLP204
T01170106





000
SAUS44 KEWX 290953
MTRATT
METAR KATT 290951Z AUTO 00000KT 10SM CLR 12/11 A3014 RMK AO2 SLP200
T01220111





000
SAUS44 KEWX 290852
MTRATT
METAR KATT 290851Z AUTO 00000KT 10SM CLR 13/11 A3014 RMK AO2 SLP198
T01280106 56003





000
SAUS44 KEWX 290752
MTRATT
METAR KATT 290751Z AUTO 20003KT 10SM CLR 13/11 A3014 RMK AO2 SLP200
T01330106





000
SAUS44 KEWX 290652
MTRATT
METAR KATT 290651Z AUTO VRB03KT 10SM CLR 14/11 A3014 RMK AO2 SLP199
T01440106





000
SAUS44 KEWX 290553
MTRATT
METAR KATT 290551Z AUTO 18004KT 10SM CLR 15/09 A3015 RMK AO2 SLP201
T01500094 10239 20150 402720056 51011





000
SAUS44 KEWX 290453
MTRATT
METAR KATT 290451Z AUTO 18003KT 10SM CLR 16/08 A3014 RMK AO2 SLP201
T01560078





000
SAUS44 KEWX 290352
MTRATT
METAR KATT 290351Z AUTO 19005KT 10SM CLR 18/07 A3012 RMK AO2 SLP196
T01780067





000
SAUS44 KEWX 290253
MTRATT
METAR KATT 290251Z AUTO VRB04KT 10SM CLR 19/04 A3011 RMK AO2 SLP194
T01890044 53014





000
SAUS44 KEWX 290152
MTRATT
METAR KATT 290151Z AUTO 19004KT 10SM CLR 20/04 A3009 RMK AO2 SLP187
T02000044





000
SAUS44 KEWX 290053
MTRATT
METAR KATT 290051Z AUTO 17006KT 10SM CLR 22/04 A3007 RMK AO2 SLP181
T02170039





000
SAUS44 KEWX 290053
MTRATT
METAR KATT 290051Z AUTO 17006KT 10SM CLR 22/04 A3007 RMK AO2 SLP181
T02170039





000
SAUS44 KEWX 282353
MTRATT
METAR KATT 282351Z AUTO 19005KT 10SM CLR 24/03 A3007 RMK AO2 SLP180
T02390033 10272 20239 56006





000
SAUS44 KEWX 282252
MTRATT
METAR KATT 282251Z AUTO VRB06G14KT 10SM CLR 26/03 A3008 RMK AO2
SLP182 T02560033





000
SAUS44 KEWX 282152
MTRATT
METAR KATT 282151Z AUTO 19009G18KT 10SM CLR 26/03 A3008 RMK AO2
SLP181 T02610028





000
SAUS44 KEWX 282052
MTRATT
METAR KATT 282051Z AUTO 20008G17KT 170V240 10SM CLR 27/04 A3009 RMK
AO2 SLP184 T02670039 56026





000
SAUS44 KEWX 281952
MTRATT
METAR KATT 281951Z AUTO 18007G17KT 10SM CLR 27/04 A3010 RMK AO2
SLP188 T02720044





000
SAUS44 KEWX 281853
MTRATT
METAR KATT 281851Z AUTO 21008KT 160V250 10SM CLR 27/06 A3013 RMK AO2
SLP198 T02670056





000
SAUS44 KEWX 281753
MTRATT
METAR KATT 281751Z AUTO VRB04KT 10SM CLR 26/07 A3017 RMK AO2 SLP210
T02560067 10256 20056 58000





000
SAUS44 KEWX 281652
MTRATT
METAR KATT 281651Z AUTO VRB03KT 10SM CLR 21/07 A3018 RMK AO2 SLP217
T02060072





000
SAUS44 KEWX 281552
MTRATT
METAR KATT 281551Z AUTO 00000KT 10SM CLR 16/06 A3018 RMK AO2 SLP218
T01610061





000
SAUS44 KEWX 281552
MTRATT
METAR KATT 281551Z AUTO 00000KT 10SM CLR 16/06 A3018 RMK AO2 SLP218
T01610061





000
SAUS44 KEWX 281452
MTRATT
METAR KATT 281451Z AUTO 00000KT 10SM CLR 12/08 A3017 RMK AO2 SLP216
T01170078 51016





000
SAUS44 KEWX 281452
MTRATT
METAR KATT 281451Z AUTO 00000KT 10SM CLR 12/08 A3017 RMK AO2 SLP216
T01170078 51016





000
SAUS44 KEWX 281352
MTRATT
METAR KATT 281351Z AUTO 00000KT 10SM CLR 06/05 A3016 RMK AO2 SLP214
T00610050





000
SAUS44 KEWX 281253
MTRATT
METAR KATT 281251Z AUTO 00000KT 10SM CLR 07/05 A3015 RMK AO2 SLP207
T00720050





000
SAUS44 KEWX 281152
MTRATT
METAR KATT 281151Z AUTO 00000KT 10SM CLR 07/05 A3012 RMK AO2 SLP197
T00720050 10122 20067 55007





000
SAUS44 KEWX 281052
MTRATT
METAR KATT 281051Z AUTO 00000KT 10SM CLR 07/05 A3012 RMK AO2 SLP196
T00670050





000
SAUS44 KEWX 280953
MTRATT
METAR KATT 280951Z AUTO 00000KT 10SM CLR 08/06 A3014 RMK AO2 SLP199
T00780056





000
SAUS44 KEWX 280953
MTRATT
METAR KATT 280951Z AUTO 00000KT 10SM CLR 08/06 A3014 RMK AO2 SLP199
T00780056





000
SAUS44 KEWX 280852
MTRATT
METAR KATT 280851Z AUTO 00000KT 10SM CLR 08/06 A3014 RMK AO2 SLP202
T00830061 56003





000
SAUS44 KEWX 280752
MTRATT
METAR KATT 280751Z AUTO 00000KT 10SM CLR 09/06 A3015 RMK AO2 SLP203
T00940061





000
SAUS44 KEWX 280752
MTRATT
METAR KATT 280751Z AUTO 00000KT 10SM CLR 09/06 A3015 RMK AO2 SLP203
T00940061





000
SAUS44 KEWX 280653
MTRATT
METAR KATT 280651Z AUTO 00000KT 10SM CLR 11/07 A3014 RMK AO2 SLP203
T01060067





000
SAUS44 KEWX 280653
MTRATT
METAR KATT 280651Z AUTO 00000KT 10SM CLR 11/07 A3014 RMK AO2 SLP203
T01060067





000
SAUS44 KEWX 280553
MTRATT
METAR KATT 280551Z AUTO 00000KT 10SM CLR 12/07 A3015 RMK AO2 SLP206
T01220067 10239 20111 402830106 50000





000
SAUS44 KEWX 280553
MTRATT
METAR KATT 280551Z AUTO 00000KT 10SM CLR 12/07 A3015 RMK AO2 SLP206
T01220067 10239 20111 402830106 50000





000
SAUS44 KEWX 280453
MTRATT
METAR KATT 280451Z AUTO 00000KT 10SM CLR 12/07 A3016 RMK AO2 SLP209
T01220067





000
SAUS44 KEWX 280353
MTRATT
METAR KATT 280351Z AUTO 00000KT 10SM CLR 14/07 A3015 RMK AO2 SLP208
T01440067





000
SAUS44 KEWX 280353
MTRATT
METAR KATT 280351Z AUTO 00000KT 10SM CLR 14/07 A3015 RMK AO2 SLP208
T01440067





000
SAUS44 KEWX 280253
MTRATT
METAR KATT 280251Z AUTO 00000KT 10SM CLR 16/07 A3015 RMK AO2 SLP208
T01560072 51011





000
SAUS44 KEWX 280253
MTRATT
METAR KATT 280251Z AUTO 00000KT 10SM CLR 16/07 A3015 RMK AO2 SLP208
T01560072 51011





000
SAUS44 KEWX 280152
MTRATT
METAR KATT 280151Z AUTO 00000KT 10SM CLR 17/07 A3015 RMK AO2 SLP206
T01720072





000
SAUS44 KEWX 280053
MTRATT
METAR KATT 280051Z AUTO 00000KT 10SM CLR 20/07 A3013 RMK AO2 SLP200
T02000067





000
SAUS44 KEWX 272353
MTRATT
METAR KATT 272351Z AUTO 10004KT 10SM CLR 24/06 A3012 RMK AO2 SLP193
T02390056 10283 20211 55003





000
SAUS44 KEWX 272252
MTRATT
METAR KATT 272251Z AUTO 13004KT 10SM CLR 26/05 A3012 RMK AO2 SLP192
T02560050





000
SAUS44 KEWX 272153
MTRATT
METAR KATT 272151Z AUTO VRB04KT 10SM CLR 27/04 A3012 RMK AO2 SLP194
T02720039





000
SAUS44 KEWX 272052
MTRATT
METAR KATT 272051Z AUTO VRB03KT 10SM CLR 27/04 A3013 RMK AO2 SLP195
T02670039 56026





000
SAUS44 KEWX 271952
MTRATT
METAR KATT 271951Z AUTO 34004KT 10SM CLR 27/04 A3014 RMK AO2 SLP200
T02670044





000
SAUS44 KEWX 271853
MTRATT
METAR KATT 271851Z AUTO 25004KT 10SM CLR 23/07 A3017 RMK AO2 SLP211
T02330067





000
SAUS44 KEWX 271752
MTRATT
METAR KATT 271751Z AUTO 30006KT 10SM CLR 21/05 A3021 RMK AO2 SLP224
T02110050 10217 20106 50003





000
SAUS44 KEWX 271653
MTRATT
METAR KATT 271651Z AUTO 31005KT 10SM CLR 18/04 A3021 RMK AO2 SLP228
T01780039





000
SAUS44 KEWX 271553
MTRATT
METAR KATT 271551Z AUTO 31010G18KT 10SM CLR 15/03 A3021 RMK AO2
SLP226 T01500033





000
SAUS44 KEWX 271553
MTRATT
METAR KATT 271551Z AUTO 31010G18KT 10SM CLR 15/03 A3021 RMK AO2
SLP226 T01500033





000
SAUS44 KEWX 271452
MTRATT
METAR KATT 271451Z AUTO 30010G18KT 10SM CLR 13/03 A3020 RMK AO2
SLP224 T01280028 53017





    US Dept of Commerce
    National Oceanic and Atmospheric Administration
    National Weather Service
    1325 East West Highway
    Silver Spring, MD 20910
    Page Author: NWS Internet Services Team
Disclaimer
Information Quality
Credits
Glossary
Privacy Policy
Freedom of Information Act (FOIA)
About Us
Career Opportunities